Time;durP1;ratioP1;P1;durP2;ratioP2;P2;SDS_P1;SDS_P2;PMS_P1;PMS_P2;Temp;Humidity;BMP_temperature;BMP_pressure;BME280_temperature;BME280_humidity;BME280_pressure;Samples;Min_cycle;Max_cycle;Signal;HPM_P1;HPM_P2
2023/12/11 00:00:48;;;;;;;27.63;25.73;;;;;;;;;;4973084;28;20453;-43
2023/12/11 00:03:14;;;;;;;26.93;24.93;;;;;;;;;;4972831;28;20531;-44
2023/12/11 00:05:40;;;;;;;32.00;29.27;;;;;;;;;;4973136;28;20416;-44
2023/12/11 00:08:06;;;;;;;21.50;19.92;;;;;;;;;;4972903;28;20849;-44
2023/12/11 00:10:32;;;;;;;25.80;24.00;;;;;;;;;;4972702;28;20577;-44
2023/12/11 00:12:58;;;;;;;27.07;25.23;;;;;;;;;;4972833;28;20189;-44
2023/12/11 00:15:24;;;;;;;29.97;27.87;;;;;;;;;;4973007;28;20551;-44
2023/12/11 00:17:50;;;;;;;29.73;27.53;;;;;;;;;;4972679;28;20414;-43
2023/12/11 00:20:16;;;;;;;35.27;32.43;;;;;;;;;;4972477;28;20445;-44
2023/12/11 00:22:42;;;;;;;28.95;26.55;;;;;;;;;;4972775;28;20448;-44
2023/12/11 00:25:10;;;;;;;40.28;36.70;;;;;;;;;;4972769;28;20218;-43
2023/12/11 00:27:36;;;;;;;39.13;35.15;;;;;;;;;;4973122;28;20669;-44
2023/12/11 00:30:02;;;;;;;52.78;40.30;;;;;;;;;;4972383;28;20216;-44
2023/12/11 00:32:28;;;;;;;52.53;39.53;;;;;;;;;;4972467;28;20177;-44
2023/12/11 00:34:54;;;;;;;57.13;40.50;;;;;;;;;;4972701;28;20201;-44
2023/12/11 00:37:20;;;;;;;39.00;33.45;;;;;;;;;;4972649;28;20189;-44
2023/12/11 00:39:46;;;;;;;64.67;41.93;;;;;;;;;;4972277;28;20571;-44
2023/12/11 00:42:12;;;;;;;54.37;38.53;;;;;;;;;;4972683;28;20464;-44
2023/12/11 00:44:38;;;;;;;34.27;31.53;;;;;;;;;;4976104;28;20421;-44
2023/12/11 00:47:05;;;;;;;70.55;41.55;;;;;;;;;;4976170;28;20422;-44
2023/12/11 00:49:31;;;;;;;85.70;44.45;;;;;;;;;;4976094;28;20232;-44
2023/12/11 00:51:57;;;;;;;79.93;43.55;;;;;;;;;;4976305;28;20685;-44
2023/12/11 00:54:23;;;;;;;75.03;42.25;;;;;;;;;;4976232;28;20216;-43
2023/12/11 00:56:49;;;;;;;62.13;40.00;;;;;;;;;;4976300;28;20185;-44
2023/12/11 00:59:15;;;;;;;48.35;38.63;;;;;;;;;;4975972;28;20647;-44
2023/12/11 01:01:41;;;;;;;39.03;35.53;;;;;;;;;;4976032;28;20189;-44
2023/12/11 01:04:08;;;;;;;58.10;41.20;;;;;;;;;;4976131;28;20425;-44
2023/12/11 01:06:34;;;;;;;69.50;42.15;;;;;;;;;;4976273;28;20186;-44
2023/12/11 01:09:00;;;;;;;66.63;42.30;;;;;;;;;;4975642;28;20213;-44
2023/12/11 01:11:26;;;;;;;68.27;42.17;;;;;;;;;;4976311;28;20424;-44
2023/12/11 01:13:52;;;;;;;46.50;37.13;;;;;;;;;;4976045;28;20781;-44
2023/12/11 01:16:19;;;;;;;38.95;34.97;;;;;;;;;;4975746;28;20412;-44
2023/12/11 01:18:45;;;;;;;42.47;38.30;;;;;;;;;;4975739;28;20174;-44
2023/12/11 01:21:11;;;;;;;49.15;40.40;;;;;;;;;;4975917;28;20228;-44
2023/12/11 01:23:37;;;;;;;60.28;41.65;;;;;;;;;;4975745;28;20184;-43
2023/12/11 01:26:03;;;;;;;66.37;42.20;;;;;;;;;;4975745;28;20181;-44
2023/12/11 01:28:29;;;;;;;63.08;44.83;;;;;;;;;;4975455;28;20472;-44
2023/12/11 01:30:55;;;;;;;82.03;44.93;;;;;;;;;;4975407;28;20202;-43
2023/12/11 01:33:21;;;;;;;77.77;43.97;;;;;;;;;;4975665;28;20980;-43
2023/12/11 01:35:47;;;;;;;58.17;40.63;;;;;;;;;;4975435;28;20461;-43
2023/12/11 01:38:13;;;;;;;82.63;45.43;;;;;;;;;;4983288;28;20405;-43
2023/12/11 01:40:39;;;;;;;87.03;46.20;;;;;;;;;;4982182;28;20916;-43
2023/12/11 01:43:18;;;;;;;90.65;45.75;;;;;;;;;;4985715;28;20409;-44
2023/12/11 01:45:44;;;;;;;89.72;44.25;;;;;;;;;;4983690;28;20645;-44
2023/12/11 01:48:12;;;;;;;69.97;42.17;;;;;;;;;;4984112;28;20203;-43
2023/12/11 01:50:39;;;;;;;68.70;42.97;;;;;;;;;;4987458;28;20693;-43
2023/12/11 01:53:06;;;;;;;70.35;43.53;;;;;;;;;;4983083;28;20201;-43
2023/12/11 01:55:32;;;;;;;68.22;43.83;;;;;;;;;;4983345;28;20207;-44
2023/12/11 01:58:00;;;;;;;75.90;45.63;;;;;;;;;;4983873;28;20535;-43
2023/12/11 02:00:26;;;;;;;97.13;46.13;;;;;;;;;;4983011;28;20201;-43
2023/12/11 02:02:52;;;;;;;102.47;45.97;;;;;;;;;;4982220;28;20568;-44
2023/12/11 02:05:18;;;;;;;116.70;48.03;;;;;;;;;;4988844;28;20173;-44
2023/12/11 02:07:44;;;;;;;120.13;49.17;;;;;;;;;;4985890;28;20423;-44
2023/12/11 02:10:10;;;;;;;128.55;49.10;;;;;;;;;;4980973;28;20812;-44
2023/12/11 02:12:36;;;;;;;134.70;51.38;;;;;;;;;;4981588;28;20208;-44
2023/12/11 02:15:02;;;;;;;141.77;51.63;;;;;;;;;;4984081;28;20240;-44
2023/12/11 02:17:28;;;;;;;143.15;51.28;;;;;;;;;;4985852;28;20499;-44
2023/12/11 02:19:54;;;;;;;142.60;50.00;;;;;;;;;;4975289;28;20276;-44
2023/12/11 02:22:21;;;;;;;140.70;51.97;;;;;;;;;;4961123;28;20414;-44
2023/12/11 02:24:49;;;;;;;131.30;49.75;;;;;;;;;;4965017;28;20413;-44
2023/12/11 02:27:15;;;;;;;145.02;52.08;;;;;;;;;;4969034;28;20593;-44
2023/12/11 02:29:41;;;;;;;158.55;52.65;;;;;;;;;;4956966;28;20190;-45
2023/12/11 02:32:07;;;;;;;154.13;53.00;;;;;;;;;;4974166;28;20185;-44
2023/12/11 02:34:33;;;;;;;161.00;52.17;;;;;;;;;;4987254;28;20574;-44
2023/12/11 02:36:59;;;;;;;63.38;42.75;;;;;;;;;;4983448;28;20737;-44
2023/12/11 02:39:25;;;;;;;143.50;51.05;;;;;;;;;;4984442;28;20194;-44
2023/12/11 02:41:51;;;;;;;111.73;47.70;;;;;;;;;;4982532;28;20308;-44
2023/12/11 02:44:17;;;;;;;105.40;47.40;;;;;;;;;;4985857;28;20420;-44
2023/12/11 02:46:43;;;;;;;99.43;44.60;;;;;;;;;;4985649;28;20220;-44
2023/12/11 02:49:09;;;;;;;94.93;45.10;;;;;;;;;;4982268;28;20239;-44
2023/12/11 02:51:35;;;;;;;100.20;45.87;;;;;;;;;;4983239;28;20412;-44
2023/12/11 02:54:01;;;;;;;85.97;43.58;;;;;;;;;;4983209;28;20548;-44
2023/12/11 02:56:27;;;;;;;110.47;47.13;;;;;;;;;;4982607;28;20745;-44
2023/12/11 02:58:53;;;;;;;141.13;51.00;;;;;;;;;;4982000;28;20181;-44
2023/12/11 03:01:19;;;;;;;178.02;55.22;;;;;;;;;;4981866;28;20488;-44
2023/12/11 03:03:45;;;;;;;182.05;55.10;;;;;;;;;;4986302;28;20172;-45
2023/12/11 03:06:17;;;;;;;156.10;52.97;;;;;;;;;;4980106;28;20765;-44
2023/12/11 03:08:43;;;;;;;185.10;55.55;;;;;;;;;;4979852;28;20414;-44
2023/12/11 03:11:10;;;;;;;187.00;55.70;;;;;;;;;;4982141;28;20193;-43
2023/12/11 03:13:36;;;;;;;192.00;57.78;;;;;;;;;;4982043;28;20514;-44
2023/12/11 03:16:02;;;;;;;194.63;56.97;;;;;;;;;;4982902;28;20282;-44
2023/12/11 03:18:29;;;;;;;199.35;63.30;;;;;;;;;;4985514;28;20540;-44
2023/12/11 03:20:56;;;;;;;196.65;63.05;;;;;;;;;;4982106;28;20207;-44
2023/12/11 03:23:22;;;;;;;189.82;58.10;;;;;;;;;;4984391;28;20240;-44
2023/12/11 03:25:49;;;;;;;181.33;55.40;;;;;;;;;;4984208;28;20189;-44
2023/12/11 03:28:15;;;;;;;180.68;58.50;;;;;;;;;;4981499;28;20811;-44
2023/12/11 03:30:42;;;;;;;183.80;56.70;;;;;;;;;;4984831;28;20251;-44
2023/12/11 03:33:08;;;;;;;177.93;55.47;;;;;;;;;;4978365;28;20431;-44
2023/12/11 03:35:34;;;;;;;183.60;57.00;;;;;;;;;;4979514;28;20205;-44
2023/12/11 03:38:00;;;;;;;182.55;57.60;;;;;;;;;;4988001;28;20420;-44
2023/12/11 03:40:26;;;;;;;175.70;55.00;;;;;;;;;;4979135;28;20192;-44
2023/12/11 03:42:52;;;;;;;174.00;53.87;;;;;;;;;;4980337;28;20413;-44
2023/12/11 03:45:18;;;;;;;175.97;56.00;;;;;;;;;;4983257;28;20915;-45
2023/12/11 03:47:43;;;;;;;173.87;54.63;;;;;;;;;;4981398;28;20413;-44
2023/12/11 03:50:10;;;;;;;175.13;56.27;;;;;;;;;;4981242;28;20439;-45
2023/12/11 03:52:36;;;;;;;171.43;55.30;;;;;;;;;;4981036;28;20421;-44
2023/12/11 03:55:02;;;;;;;184.18;58.17;;;;;;;;;;4986253;28;20205;-44
2023/12/11 03:57:28;;;;;;;177.52;54.50;;;;;;;;;;4981586;28;20169;-44
2023/12/11 03:59:54;;;;;;;169.00;54.83;;;;;;;;;;4978108;28;20201;-44
2023/12/11 04:02:20;;;;;;;176.67;55.60;;;;;;;;;;4981136;28;20511;-44
2023/12/11 04:04:46;;;;;;;182.73;56.88;;;;;;;;;;4980957;28;20424;-44
2023/12/11 04:07:12;;;;;;;185.97;55.37;;;;;;;;;;4984213;28;20547;-44
2023/12/11 04:09:38;;;;;;;185.03;54.80;;;;;;;;;;4983244;28;20436;-44
2023/12/11 04:12:04;;;;;;;184.00;54.75;;;;;;;;;;4984569;28;20498;-44
2023/12/11 04:14:30;;;;;;;175.98;54.17;;;;;;;;;;4980057;28;20197;-44
2023/12/11 04:16:56;;;;;;;174.67;55.07;;;;;;;;;;4976663;28;20238;-44
2023/12/11 04:19:22;;;;;;;179.77;54.67;;;;;;;;;;4983476;28;20434;-44
2023/12/11 04:21:48;;;;;;;183.43;56.20;;;;;;;;;;4982030;28;20458;-44
2023/12/11 04:24:13;;;;;;;188.10;56.23;;;;;;;;;;4983685;28;20400;-44
2023/12/11 04:26:40;;;;;;;189.87;56.93;;;;;;;;;;4981591;28;20967;-44
2023/12/11 04:29:06;;;;;;;190.13;56.45;;;;;;;;;;4982583;28;20471;-44
2023/12/11 04:31:32;;;;;;;187.50;55.90;;;;;;;;;;4978600;28;20188;-43
2023/12/11 04:33:58;;;;;;;189.00;56.97;;;;;;;;;;4983173;28;20416;-44
2023/12/11 04:36:24;;;;;;;189.68;57.13;;;;;;;;;;4982214;28;20169;-43
2023/12/11 04:38:50;;;;;;;192.73;56.88;;;;;;;;;;4979865;28;20181;-43
2023/12/11 04:41:16;;;;;;;197.82;59.05;;;;;;;;;;4982945;28;20211;-44
2023/12/11 04:43:43;;;;;;;198.20;58.00;;;;;;;;;;4980690;28;20214;-44
2023/12/11 04:46:09;;;;;;;196.40;59.17;;;;;;;;;;4981248;28;20412;-44
2023/12/11 04:48:35;;;;;;;200.37;61.70;;;;;;;;;;4980327;28;20178;-44
2023/12/11 04:51:01;;;;;;;196.57;58.60;;;;;;;;;;4985760;28;20432;-44
2023/12/11 04:53:27;;;;;;;194.10;54.80;;;;;;;;;;4981313;28;20226;-44
2023/12/11 04:55:53;;;;;;;193.77;55.22;;;;;;;;;;4978192;28;20515;-44
2023/12/11 04:58:20;;;;;;;201.67;59.07;;;;;;;;;;4980818;28;20201;-44
2023/12/11 05:00:46;;;;;;;204.25;56.13;;;;;;;;;;4980501;28;20425;-44
2023/12/11 05:03:12;;;;;;;202.10;55.70;;;;;;;;;;4983009;28;20271;-44
2023/12/11 05:05:38;;;;;;;203.47;54.43;;;;;;;;;;4983671;28;20415;-44
2023/12/11 05:08:04;;;;;;;206.57;54.35;;;;;;;;;;4984357;28;20451;-44
2023/12/11 05:10:30;;;;;;;205.50;54.40;;;;;;;;;;4979477;28;20634;-44
2023/12/11 05:12:56;;;;;;;207.93;55.07;;;;;;;;;;4976489;28;20272;-44
2023/12/11 05:15:22;;;;;;;209.10;55.33;;;;;;;;;;4983593;28;20463;-45
2023/12/11 05:17:48;;;;;;;207.27;55.85;;;;;;;;;;4981884;28;20896;-44
2023/12/11 05:20:16;;;;;;;200.53;54.10;;;;;;;;;;4982720;28;20189;-44
2023/12/11 05:22:42;;;;;;;178.73;51.78;;;;;;;;;;4972676;28;20897;-44
2023/12/11 05:25:08;;;;;;;192.40;52.30;;;;;;;;;;4958191;28;20225;-44
2023/12/11 05:27:34;;;;;;;196.35;51.05;;;;;;;;;;4963049;28;20413;-44
2023/12/11 05:30:00;;;;;;;209.70;54.33;;;;;;;;;;4966521;28;20255;-44
2023/12/11 05:32:25;;;;;;;204.50;54.37;;;;;;;;;;4956368;28;20406;-43
2023/12/11 05:34:51;;;;;;;205.57;53.87;;;;;;;;;;4956370;28;20960;-44
2023/12/11 05:37:17;;;;;;;208.10;53.55;;;;;;;;;;4973880;28;20411;-45
2023/12/11 05:39:43;;;;;;;205.50;53.47;;;;;;;;;;4961602;28;20689;-44
2023/12/11 05:42:09;;;;;;;207.57;54.90;;;;;;;;;;4965773;28;20516;-44
2023/12/11 05:44:35;;;;;;;205.03;53.27;;;;;;;;;;4969918;28;20429;-43
2023/12/11 05:47:01;;;;;;;205.02;53.40;;;;;;;;;;4956739;28;20818;-44
2023/12/11 05:49:27;;;;;;;205.52;52.92;;;;;;;;;;4955885;28;20189;-44
2023/12/11 05:51:53;;;;;;;205.87;53.27;;;;;;;;;;4973006;28;20656;-45
2023/12/11 05:54:19;;;;;;;203.90;53.60;;;;;;;;;;4962039;28;20484;-44
2023/12/11 05:56:45;;;;;;;196.80;51.17;;;;;;;;;;4972667;28;20431;-44
2023/12/11 05:59:11;;;;;;;196.70;50.92;;;;;;;;;;4969836;28;20906;-44
2023/12/11 06:01:37;;;;;;;201.77;53.90;;;;;;;;;;4956838;28;20231;-44
2023/12/11 06:04:04;;;;;;;203.32;54.45;;;;;;;;;;4975274;28;20401;-44
2023/12/11 06:06:30;;;;;;;198.23;53.13;;;;;;;;;;4958700;28;20188;-44
2023/12/11 06:08:57;;;;;;;195.88;52.20;;;;;;;;;;4967800;28;20189;-44
2023/12/11 06:11:23;;;;;;;196.50;53.63;;;;;;;;;;4966134;28;20236;-45
2023/12/11 06:13:49;;;;;;;194.35;51.90;;;;;;;;;;4960388;28;20176;-44
2023/12/11 06:16:16;;;;;;;197.70;52.13;;;;;;;;;;4974089;28;20752;-44
2023/12/11 06:18:42;;;;;;;197.60;53.83;;;;;;;;;;4955387;28;20413;-44
2023/12/11 06:21:17;;;;;;;188.55;52.10;;;;;;;;;;4971656;28;20272;-44
2023/12/11 06:23:43;;;;;;;185.32;53.15;;;;;;;;;;4961184;28;20188;-44
2023/12/11 06:26:09;;;;;;;185.07;50.93;;;;;;;;;;4964900;28;20181;-44
2023/12/11 06:28:35;;;;;;;188.07;53.20;;;;;;;;;;4968901;28;20496;-44
2023/12/11 06:31:01;;;;;;;195.27;54.30;;;;;;;;;;4956689;28;20793;-44
2023/12/11 06:33:27;;;;;;;190.70;53.20;;;;;;;;;;4974186;28;20408;-44
2023/12/11 06:35:53;;;;;;;190.77;52.97;;;;;;;;;;4957425;28;20554;-45
2023/12/11 06:38:19;;;;;;;184.87;53.40;;;;;;;;;;4967829;28;20409;-44
2023/12/11 06:40:45;;;;;;;180.73;51.90;;;;;;;;;;4965319;28;20433;-44
2023/12/11 06:43:12;;;;;;;172.05;52.70;;;;;;;;;;4960019;28;20976;-44
2023/12/11 06:45:38;;;;;;;175.23;53.10;;;;;;;;;;4973187;28;20177;-44
2023/12/11 06:48:04;;;;;;;185.33;55.30;;;;;;;;;;4954979;28;20534;-44
2023/12/11 06:50:30;;;;;;;179.40;53.42;;;;;;;;;;4971398;28;20432;-44
2023/12/11 06:52:56;;;;;;;190.67;53.60;;;;;;;;;;4961639;28;20248;-44
2023/12/11 06:55:22;;;;;;;166.43;51.63;;;;;;;;;;4963333;28;20452;-44
2023/12/11 06:57:48;;;;;;;182.70;53.00;;;;;;;;;;4973733;28;20955;-44
2023/12/11 07:00:14;;;;;;;154.80;49.30;;;;;;;;;;4973246;28;20444;-45
2023/12/11 07:02:40;;;;;;;150.88;51.08;;;;;;;;;;4954649;28;20429;-45
2023/12/11 07:05:06;;;;;;;158.27;50.75;;;;;;;;;;4970629;28;20181;-44
2023/12/11 07:07:32;;;;;;;162.88;51.75;;;;;;;;;;4962129;28;20182;-44
2023/12/11 07:10:05;;;;;;;166.80;52.10;;;;;;;;;;4962320;28;20201;-44
2023/12/11 07:12:31;;;;;;;173.60;52.58;;;;;;;;;;4968990;28;20422;-44
2023/12/11 07:14:57;;;;;;;169.87;52.63;;;;;;;;;;4955813;28;20232;-44
2023/12/11 07:17:24;;;;;;;176.02;53.50;;;;;;;;;;4973723;28;20405;-44
2023/12/11 07:19:50;;;;;;;189.43;54.47;;;;;;;;;;4956846;28;20202;-45
2023/12/11 07:22:16;;;;;;;160.32;51.60;;;;;;;;;;4966946;28;20170;-44
2023/12/11 07:24:42;;;;;;;155.73;50.33;;;;;;;;;;4965050;28;20590;-44
2023/12/11 07:27:08;;;;;;;165.10;51.67;;;;;;;;;;4958915;28;20423;-43
2023/12/11 07:29:34;;;;;;;162.07;52.73;;;;;;;;;;4972626;28;20467;-44
2023/12/11 07:32:00;;;;;;;165.93;51.40;;;;;;;;;;4954198;28;20405;-43
2023/12/11 07:34:26;;;;;;;179.37;53.40;;;;;;;;;;4970200;28;20626;-44
2023/12/11 07:36:52;;;;;;;166.40;52.55;;;;;;;;;;4960912;28;20417;-43
2023/12/11 07:39:18;;;;;;;164.93;54.00;;;;;;;;;;4959896;28;20205;-43
2023/12/11 07:41:44;;;;;;;154.35;51.13;;;;;;;;;;4968906;28;20648;-43
2023/12/11 07:44:10;;;;;;;173.30;54.77;;;;;;;;;;4953651;28;20181;-45
2023/12/11 07:46:36;;;;;;;180.17;53.57;;;;;;;;;;4966592;28;20497;-44
2023/12/11 07:49:02;;;;;;;180.60;54.50;;;;;;;;;;4955743;28;21124;-44
2023/12/11 07:51:28;;;;;;;181.02;53.65;;;;;;;;;;4963599;28;20413;-44
2023/12/11 07:53:55;;;;;;;182.33;54.07;;;;;;;;;;4964594;28;20178;-44
2023/12/11 07:56:22;;;;;;;176.55;54.40;;;;;;;;;;4967069;28;20804;-44
2023/12/11 07:58:48;;;;;;;178.57;52.40;;;;;;;;;;4971451;28;20165;-44
2023/12/11 08:01:14;;;;;;;184.13;53.72;;;;;;;;;;4953805;28;20193;-44
2023/12/11 08:03:40;;;;;;;190.20;53.17;;;;;;;;;;4969081;28;20454;-44
2023/12/11 08:06:08;;;;;;;192.10;54.65;;;;;;;;;;4961838;28;20450;-44
2023/12/11 08:08:43;;;;;;;178.90;56.50;;;;;;;;;;4960954;28;20193;-44
2023/12/11 08:11:16;;;;;;;153.52;49.42;;;;;;;;;;4968130;28;20677;-43
2023/12/11 08:13:42;;;;;;;95.28;44.53;;;;;;;;;;4955164;28;20693;-44
2023/12/11 08:16:08;;;;;;;119.07;45.90;;;;;;;;;;4972991;28;20703;-44
2023/12/11 08:18:37;;;;;;;141.95;50.40;;;;;;;;;;4955599;28;20181;-44
2023/12/11 08:21:04;;;;;;;139.05;47.65;;;;;;;;;;4967061;28;20648;-44
2023/12/11 08:23:30;;;;;;;127.88;45.00;;;;;;;;;;4963207;28;20244;-44
2023/12/11 08:25:56;;;;;;;140.40;47.65;;;;;;;;;;4959103;28;20297;-44
2023/12/11 08:28:22;;;;;;;167.55;56.33;;;;;;;;;;4970838;28;20196;-44
2023/12/11 08:30:48;;;;;;;176.03;51.10;;;;;;;;;;4953495;28;20554;-44
2023/12/11 08:33:14;;;;;;;173.60;51.80;;;;;;;;;;4970551;28;20631;-44
2023/12/11 08:35:40;;;;;;;181.10;51.85;;;;;;;;;;4959518;28;20472;-44
2023/12/11 08:38:06;;;;;;;194.50;55.27;;;;;;;;;;4962509;28;20181;-44
2023/12/11 08:40:32;;;;;;;198.25;54.65;;;;;;;;;;4967219;28;20425;-44
2023/12/11 08:42:59;;;;;;;170.20;52.95;;;;;;;;;;4954499;28;20257;-44
2023/12/11 08:45:25;;;;;;;173.25;53.83;;;;;;;;;;4973169;28;20609;-45
2023/12/11 08:47:51;;;;;;;181.75;53.00;;;;;;;;;;4956001;28;20189;-44
2023/12/11 08:50:18;;;;;;;187.93;54.97;;;;;;;;;;4965662;28;20296;-44
2023/12/11 08:52:44;;;;;;;171.93;52.22;;;;;;;;;;4970316;28;20424;-44
2023/12/11 08:55:10;;;;;;;173.20;52.58;;;;;;;;;;4980665;28;20257;-44
2023/12/11 08:57:36;;;;;;;189.80;55.00;;;;;;;;;;4978820;28;20169;-44
2023/12/11 09:00:05;;;;;;;194.80;54.80;;;;;;;;;;4981477;28;20272;-44
2023/12/11 09:02:31;;;;;;;197.73;55.72;;;;;;;;;;4983403;28;20185;-44
2023/12/11 09:04:57;;;;;;;197.60;54.83;;;;;;;;;;4983770;28;20205;-44
2023/12/11 09:07:23;;;;;;;200.10;55.83;;;;;;;;;;4987627;28;20193;-44
2023/12/11 09:09:49;;;;;;;202.25;57.33;;;;;;;;;;4983443;28;20451;-44
2023/12/11 09:12:15;;;;;;;185.67;53.57;;;;;;;;;;4987157;28;20177;-44
2023/12/11 09:14:41;;;;;;;199.37;53.07;;;;;;;;;;4987246;28;20467;-44
2023/12/11 09:17:07;;;;;;;199.90;55.20;;;;;;;;;;4985132;28;20504;-44
2023/12/11 09:19:33;;;;;;;186.23;57.33;;;;;;;;;;4985658;28;20847;-44
2023/12/11 09:22:00;;;;;;;180.07;53.57;;;;;;;;;;4984897;28;20496;-44
2023/12/11 09:24:26;;;;;;;161.63;52.15;;;;;;;;;;4985166;28;20409;-44
2023/12/11 09:26:52;;;;;;;166.80;51.77;;;;;;;;;;4984905;28;20208;-44
2023/12/11 09:29:18;;;;;;;158.57;51.03;;;;;;;;;;4983330;28;20459;-44
2023/12/11 09:31:45;;;;;;;160.53;51.90;;;;;;;;;;4988470;28;21102;-44
2023/12/11 09:34:12;;;;;;;166.75;51.50;;;;;;;;;;4983216;28;20483;-44
2023/12/11 09:36:38;;;;;;;161.90;53.13;;;;;;;;;;4983546;28;20696;-43
2023/12/11 09:39:04;;;;;;;178.38;56.83;;;;;;;;;;4984151;28;20178;-45
2023/12/11 09:41:33;;;;;;;170.52;53.05;;;;;;;;;;4983341;28;20172;-44
2023/12/11 09:44:00;;;;;;;170.70;52.88;;;;;;;;;;4975864;28;20173;-44
2023/12/11 09:46:28;;;;;;;145.68;49.55;;;;;;;;;;4963537;28;20174;-44
2023/12/11 09:48:54;;;;;;;164.35;51.92;;;;;;;;;;4963722;28;20181;-44
2023/12/11 09:51:20;;;;;;;173.40;52.30;;;;;;;;;;4971365;28;20179;-44
2023/12/11 09:53:46;;;;;;;166.20;52.55;;;;;;;;;;4956098;28;20402;-45
2023/12/11 09:56:12;;;;;;;141.25;49.70;;;;;;;;;;4975498;28;20613;-44
2023/12/11 09:58:39;;;;;;;147.35;48.45;;;;;;;;;;4974582;28;20173;-44
2023/12/11 10:01:07;;;;;;;154.00;50.47;;;;;;;;;;4966424;28;20213;-44
2023/12/11 10:03:33;;;;;;;119.28;47.28;;;;;;;;;;4967404;28;20194;-43
2023/12/11 10:06:00;;;;;;;104.23;42.93;;;;;;;;;;4956109;28;20182;-44
2023/12/11 10:08:26;;;;;;;44.13;40.03;;;;;;;;;;4955646;28;20417;-44
2023/12/11 10:11:09;;;;;;;49.90;38.58;;;;;;;;;;4974848;28;20249;-44
2023/12/11 10:13:35;;;;;;;43.58;37.67;;;;;;;;;;4957146;28;20178;-44
2023/12/11 10:16:01;;;;;;;95.10;43.95;;;;;;;;;;4968421;28;20228;-44
2023/12/11 10:18:27;;;;;;;119.00;46.37;;;;;;;;;;4965373;28;20636;-43
2023/12/11 10:20:54;;;;;;;101.83;43.00;;;;;;;;;;4961170;28;20468;-43
2023/12/11 10:23:21;;;;;;;110.38;41.40;;;;;;;;;;4972789;28;20408;-44
2023/12/11 10:25:49;;;;;;;41.83;37.83;;;;;;;;;;4955510;28;20584;-43
2023/12/11 10:28:16;;;;;;;74.07;42.58;;;;;;;;;;4972681;28;20186;-44
2023/12/11 10:30:53;;;;;;;133.00;48.42;;;;;;;;;;4960411;28;20692;-43
2023/12/11 10:33:19;;;;;;;175.50;52.97;;;;;;;;;;4966429;28;20173;-43
2023/12/11 10:35:45;;;;;;;172.68;51.22;;;;;;;;;;4967051;28;20853;-43
2023/12/11 10:38:15;;;;;;;175.20;52.55;;;;;;;;;;4958455;28;20217;-45
2023/12/11 10:40:42;;;;;;;171.40;51.20;;;;;;;;;;4974131;28;20233;-43
2023/12/11 10:43:08;;;;;;;168.05;49.58;;;;;;;;;;4955110;28;20177;-43
2023/12/11 10:45:34;;;;;;;171.50;50.97;;;;;;;;;;4970401;28;20182;-44
2023/12/11 10:48:01;;;;;;;133.57;46.85;;;;;;;;;;4962499;28;20178;-44
2023/12/11 10:50:28;;;;;;;44.95;35.67;;;;;;;;;;4962113;28;20209;-43
2023/12/11 10:52:54;;;;;;;34.78;31.83;;;;;;;;;;4973238;28;20182;-43
2023/12/11 10:55:20;;;;;;;32.58;30.02;;;;;;;;;;4972655;28;20273;-43
2023/12/11 10:57:46;;;;;;;91.33;43.40;;;;;;;;;;4973728;28;20260;-43
2023/12/11 11:00:14;;;;;;;95.07;44.15;;;;;;;;;;4958177;28;20981;-43
2023/12/11 11:02:44;;;;;;;66.13;38.90;;;;;;;;;;4966063;28;20185;-44
2023/12/11 11:05:11;;;;;;;49.78;40.08;;;;;;;;;;4965870;28;20182;-43
2023/12/11 11:07:39;;;;;;;81.63;42.25;;;;;;;;;;4958727;28;20180;-43
2023/12/11 11:10:09;;;;;;;87.20;43.75;;;;;;;;;;4972828;28;20243;-43
2023/12/11 11:12:38;;;;;;;72.55;41.15;;;;;;;;;;4954562;28;20176;-44
2023/12/11 11:15:05;;;;;;;97.38;44.10;;;;;;;;;;4970999;28;20284;-43
2023/12/11 11:17:50;;;;;;;30.05;27.65;;;;;;;;;;4960649;28;20225;-44
2023/12/11 11:20:17;;;;;;;32.92;28.52;;;;;;;;;;4965211;28;20205;-43
2023/12/11 11:22:43;;;;;;;42.20;36.67;;;;;;;;;;4966043;28;20174;-43
2023/12/11 11:25:27;;;;;;;36.45;32.58;;;;;;;;;;4957653;28;20181;-44
2023/12/11 11:27:53;;;;;;;40.42;34.90;;;;;;;;;;4970612;28;20216;-43
2023/12/11 11:30:43;;;;;;;32.43;30.03;;;;;;;;;;4953912;28;20229;-43
2023/12/11 11:33:09;;;;;;;38.60;34.95;;;;;;;;;;4951518;28;20933;-43
2023/12/11 11:35:47;;;;;;;24.17;22.07;;;;;;;;;;4970373;28;20197;-43
2023/12/11 11:38:15;;;;;;;32.33;28.52;;;;;;;;;;4958640;28;20423;-43
2023/12/11 11:40:43;;;;;;;37.75;33.80;;;;;;;;;;4964305;28;20196;-43
2023/12/11 11:43:10;;;;;;;34.90;31.30;;;;;;;;;;4966364;28;20225;-44
2023/12/11 11:45:36;;;;;;;32.05;29.67;;;;;;;;;;4956845;28;20193;-43
2023/12/11 11:48:02;;;;;;;28.25;25.98;;;;;;;;;;4973154;28;20177;-43
2023/12/11 11:50:28;;;;;;;27.48;25.48;;;;;;;;;;4954407;28;20202;-43
2023/12/11 11:53:00;;;;;;;44.47;39.10;;;;;;;;;;4968338;28;20189;-43
2023/12/11 11:55:29;;;;;;;59.03;40.15;;;;;;;;;;4968302;28;20453;-43
2023/12/11 11:57:58;;;;;;;56.10;40.03;;;;;;;;;;4972620;28;20623;-44
2023/12/11 12:00:27;;;;;;;44.42;39.22;;;;;;;;;;4969158;28;20216;-43
2023/12/11 12:02:57;;;;;;;46.60;39.20;;;;;;;;;;4953984;28;20692;-43
2023/12/11 12:05:23;;;;;;;39.15;26.02;;;;;;;;;;4973195;28;20204;-43
2023/12/11 12:07:49;;;;;;;41.33;33.05;;;;;;;;;;4956650;28;20650;-43
2023/12/11 12:10:16;;;;;;;30.52;28.20;;;;;;;;;;4965508;28;20696;-43
2023/12/11 12:12:43;;;;;;;26.50;24.17;;;;;;;;;;4964357;28;20178;-43
2023/12/11 12:15:09;;;;;;;22.88;21.17;;;;;;;;;;4958141;28;20557;-43
2023/12/11 12:17:36;;;;;;;21.40;19.55;;;;;;;;;;4972065;28;20173;-43
2023/12/11 12:20:14;;;;;;;12.95;11.75;;;;;;;;;;4951967;28;20190;-43
2023/12/11 12:22:56;;;;;;;14.98;13.48;;;;;;;;;;4969641;28;20296;-43
2023/12/11 12:25:23;;;;;;;40.03;32.30;;;;;;;;;;4955468;28;20189;-43
2023/12/11 12:27:49;;;;;;;49.40;44.08;;;;;;;;;;4962298;28;20193;-42
2023/12/11 12:30:16;;;;;;;45.47;38.60;;;;;;;;;;4962418;28;20291;-42
2023/12/11 12:32:42;;;;;;;43.78;39.28;;;;;;;;;;4970629;28;20676;-43
2023/12/11 12:35:09;;;;;;;47.17;42.67;;;;;;;;;;4970592;28;20211;-43
2023/12/11 12:37:37;;;;;;;42.20;38.22;;;;;;;;;;4952857;28;20178;-43
2023/12/11 12:40:06;;;;;;;43.30;38.95;;;;;;;;;;4969910;28;20280;-43
2023/12/11 12:42:32;;;;;;;45.67;41.28;;;;;;;;;;4964143;28;20170;-43
2023/12/11 12:44:58;;;;;;;44.72;40.25;;;;;;;;;;4965804;28;20194;-43
2023/12/11 12:47:24;;;;;;;43.15;38.50;;;;;;;;;;4972163;28;20182;-42
2023/12/11 12:49:50;;;;;;;47.13;41.37;;;;;;;;;;4957385;28;20205;-43
2023/12/11 12:52:30;;;;;;;46.27;40.27;;;;;;;;;;4976667;28;20424;-43
2023/12/11 12:54:56;;;;;;;42.40;38.15;;;;;;;;;;4960918;28;20458;-43
2023/12/11 12:57:23;;;;;;;47.75;42.65;;;;;;;;;;4976451;28;20173;-43
2023/12/11 12:59:49;;;;;;;45.45;40.72;;;;;;;;;;4966033;28;20186;-43
2023/12/11 13:02:15;;;;;;;47.37;42.77;;;;;;;;;;4962826;28;20200;-43
2023/12/11 13:04:52;;;;;;;46.33;41.55;;;;;;;;;;4974301;28;20417;-43
2023/12/11 13:07:21;;;;;;;47.05;41.53;;;;;;;;;;4956926;28;20170;-43
2023/12/11 13:09:47;;;;;;;37.00;33.05;;;;;;;;;;4956729;28;20199;-43
2023/12/11 13:12:16;;;;;;;32.90;29.60;;;;;;;;;;4972171;28;20765;-43
2023/12/11 13:14:42;;;;;;;35.53;32.47;;;;;;;;;;4964296;28;20472;-43
2023/12/11 13:17:08;;;;;;;44.90;38.37;;;;;;;;;;4964469;28;20170;-43
2023/12/11 13:19:34;;;;;;;35.30;30.27;;;;;;;;;;4972253;28;20437;-43
2023/12/11 13:22:00;;;;;;;30.52;27.70;;;;;;;;;;4956750;28;20405;-43
2023/12/11 13:24:26;;;;;;;31.23;28.50;;;;;;;;;;4975705;28;20224;-44
2023/12/11 13:26:52;;;;;;;21.35;19.75;;;;;;;;;;4960717;28;20421;-44
2023/12/11 13:29:18;;;;;;;24.63;22.77;;;;;;;;;;4967376;28;20205;-43
2023/12/11 13:31:44;;;;;;;38.75;35.55;;;;;;;;;;4968555;28;20174;-43
2023/12/11 13:34:10;;;;;;;28.00;25.92;;;;;;;;;;4959617;28;20205;-43
2023/12/11 13:36:36;;;;;;;34.90;32.53;;;;;;;;;;4974661;28;20217;-43
2023/12/11 13:39:03;;;;;;;19.67;18.17;;;;;;;;;;4956547;28;20413;-43
2023/12/11 13:41:29;;;;;;;37.35;33.35;;;;;;;;;;4970998;28;20174;-42
2023/12/11 13:43:55;;;;;;;48.65;43.53;;;;;;;;;;4965136;28;20535;-43
2023/12/11 13:46:21;;;;;;;20.67;19.13;;;;;;;;;;4962919;28;20181;-43
2023/12/11 13:48:47;;;;;;;31.45;29.08;;;;;;;;;;4972466;28;20416;-42
2023/12/11 13:51:13;;;;;;;21.80;20.33;;;;;;;;;;4954981;28;20202;-43
2023/12/11 13:53:39;;;;;;;32.97;30.48;;;;;;;;;;4974169;28;20498;-43
2023/12/11 13:56:05;;;;;;;44.83;40.60;;;;;;;;;;4972849;28;20206;-44
2023/12/11 13:58:32;;;;;;;48.88;43.92;;;;;;;;;;4974525;28;20418;-42
2023/12/11 14:00:58;;;;;;;45.22;40.95;;;;;;;;;;4968831;28;20189;-42
2023/12/11 14:03:24;;;;;;;46.28;41.38;;;;;;;;;;4958167;28;20543;-43
2023/12/11 14:05:50;;;;;;;36.57;33.47;;;;;;;;;;4970292;28;20193;-44